sensor_id;sensor_type;location;lat;lon;timestamp;P1;durP1;ratioP1;P2;durP2;ratioP2
83182;SDS011;73077;49.898;16.450;2023-12-20T00:00:13;10.80;;;4.45;;
83182;SDS011;73077;49.898;16.450;2023-12-20T00:02:41;7.45;;;3.78;;
83182;SDS011;73077;49.898;16.450;2023-12-20T00:05:10;7.13;;;3.47;;
83182;SDS011;73077;49.898;16.450;2023-12-20T00:07:35;6.50;;;3.95;;
83182;SDS011;73077;49.898;16.450;2023-12-20T00:10:01;4.53;;;2.78;;
83182;SDS011;73077;49.898;16.450;2023-12-20T00:12:27;10.52;;;3.97;;
83182;SDS011;73077;49.898;16.450;2023-12-20T00:14:52;8.02;;;3.38;;
83182;SDS011;73077;49.898;16.450;2023-12-20T00:17:18;8.20;;;3.97;;
83182;SDS011;73077;49.898;16.450;2023-12-20T00:19:44;10.80;;;3.08;;
83182;SDS011;73077;49.898;16.450;2023-12-20T00:22:11;7.72;;;3.80;;
83182;SDS011;73077;49.898;16.450;2023-12-20T00:24:36;6.90;;;3.15;;
83182;SDS011;73077;49.898;16.450;2023-12-20T00:27:02;7.38;;;3.92;;
83182;SDS011;73077;49.898;16.450;2023-12-20T00:29:28;8.90;;;3.95;;
83182;SDS011;73077;49.898;16.450;2023-12-20T00:31:55;9.43;;;4.20;;
83182;SDS011;73077;49.898;16.450;2023-12-20T00:34:20;7.63;;;3.50;;
83182;SDS011;73077;49.898;16.450;2023-12-20T00:36:46;7.70;;;3.42;;
83182;SDS011;73077;49.898;16.450;2023-12-20T00:39:12;10.55;;;3.38;;
83182;SDS011;73077;49.898;16.450;2023-12-20T00:41:38;9.88;;;4.53;;
83182;SDS011;73077;49.898;16.450;2023-12-20T00:44:05;7.72;;;4.10;;
83182;SDS011;73077;49.898;16.450;2023-12-20T00:46:30;8.27;;;3.75;;
83182;SDS011;73077;49.898;16.450;2023-12-20T00:48:56;9.68;;;3.78;;
83182;SDS011;73077;49.898;16.450;2023-12-20T00:51:22;9.88;;;3.70;;
83182;SDS011;73077;49.898;16.450;2023-12-20T00:53:49;8.88;;;4.10;;
83182;SDS011;73077;49.898;16.450;2023-12-20T00:56:15;7.30;;;2.95;;
83182;SDS011;73077;49.898;16.450;2023-12-20T00:58:41;4.80;;;3.92;;
83182;SDS011;73077;49.898;16.450;2023-12-20T01:01:06;9.25;;;3.78;;
83182;SDS011;73077;49.898;16.450;2023-12-20T01:03:32;6.38;;;3.10;;
83182;SDS011;73077;49.898;16.450;2023-12-20T01:05:58;6.15;;;3.63;;
83182;SDS011;73077;49.898;16.450;2023-12-20T01:08:23;6.22;;;3.83;;
83182;SDS011;73077;49.898;16.450;2023-12-20T01:10:49;9.73;;;4.18;;
83182;SDS011;73077;49.898;16.450;2023-12-20T01:13:15;5.35;;;3.38;;
83182;SDS011;73077;49.898;16.450;2023-12-20T01:15:40;8.93;;;3.15;;
83182;SDS011;73077;49.898;16.450;2023-12-20T01:18:06;8.30;;;4.22;;
83182;SDS011;73077;49.898;16.450;2023-12-20T01:20:32;5.55;;;2.47;;
83182;SDS011;73077;49.898;16.450;2023-12-20T01:22:58;6.47;;;3.75;;
83182;SDS011;73077;49.898;16.450;2023-12-20T01:25:23;5.22;;;2.83;;
83182;SDS011;73077;49.898;16.450;2023-12-20T01:27:49;8.90;;;3.50;;
83182;SDS011;73077;49.898;16.450;2023-12-20T01:30:15;7.38;;;3.00;;
83182;SDS011;73077;49.898;16.450;2023-12-20T01:32:41;10.88;;;4.00;;
83182;SDS011;73077;49.898;16.450;2023-12-20T01:35:07;5.70;;;3.05;;
83182;SDS011;73077;49.898;16.450;2023-12-20T01:37:33;7.35;;;3.38;;
83182;SDS011;73077;49.898;16.450;2023-12-20T01:40:00;7.55;;;3.88;;
83182;SDS011;73077;49.898;16.450;2023-12-20T01:42:25;9.27;;;4.07;;
83182;SDS011;73077;49.898;16.450;2023-12-20T01:44:51;8.02;;;3.38;;
83182;SDS011;73077;49.898;16.450;2023-12-20T01:47:17;10.07;;;5.53;;
83182;SDS011;73077;49.898;16.450;2023-12-20T01:49:43;6.90;;;2.22;;
83182;SDS011;73077;49.898;16.450;2023-12-20T01:52:09;7.45;;;3.30;;
83182;SDS011;73077;49.898;16.450;2023-12-20T01:54:35;9.80;;;3.45;;
83182;SDS011;73077;49.898;16.450;2023-12-20T01:57:01;8.65;;;2.70;;
83182;SDS011;73077;49.898;16.450;2023-12-20T01:59:28;9.88;;;3.88;;
83182;SDS011;73077;49.898;16.450;2023-12-20T02:01:54;9.05;;;3.00;;
83182;SDS011;73077;49.898;16.450;2023-12-20T02:04:20;6.13;;;3.17;;
83182;SDS011;73077;49.898;16.450;2023-12-20T02:06:46;8.98;;;3.72;;
83182;SDS011;73077;49.898;16.450;2023-12-20T02:09:12;7.97;;;3.20;;
83182;SDS011;73077;49.898;16.450;2023-12-20T02:11:38;4.30;;;2.05;;
83182;SDS011;73077;49.898;16.450;2023-12-20T02:14:04;6.82;;;3.83;;
83182;SDS011;73077;49.898;16.450;2023-12-20T02:16:30;5.28;;;2.83;;
83182;SDS011;73077;49.898;16.450;2023-12-20T02:18:55;4.50;;;2.78;;
83182;SDS011;73077;49.898;16.450;2023-12-20T02:21:25;13.43;;;3.92;;
83182;SDS011;73077;49.898;16.450;2023-12-20T02:26:17;4.25;;;2.10;;
83182;SDS011;73077;49.898;16.450;2023-12-20T02:28:43;3.75;;;2.55;;
83182;SDS011;73077;49.898;16.450;2023-12-20T02:31:09;5.65;;;2.88;;
83182;SDS011;73077;49.898;16.450;2023-12-20T02:33:35;6.15;;;3.28;;
83182;SDS011;73077;49.898;16.450;2023-12-20T02:36:01;5.20;;;3.28;;
83182;SDS011;73077;49.898;16.450;2023-12-20T02:38:26;4.32;;;2.80;;
83182;SDS011;73077;49.898;16.450;2023-12-20T02:40:53;4.30;;;2.88;;
83182;SDS011;73077;49.898;16.450;2023-12-20T02:43:19;5.22;;;3.38;;
83182;SDS011;73077;49.898;16.450;2023-12-20T02:45:45;5.30;;;3.58;;
83182;SDS011;73077;49.898;16.450;2023-12-20T02:48:11;3.10;;;2.22;;
83182;SDS011;73077;49.898;16.450;2023-12-20T02:50:37;5.05;;;2.40;;
83182;SDS011;73077;49.898;16.450;2023-12-20T02:53:04;4.40;;;3.30;;
83182;SDS011;73077;49.898;16.450;2023-12-20T02:55:29;7.25;;;3.10;;
83182;SDS011;73077;49.898;16.450;2023-12-20T02:57:55;7.55;;;3.72;;
83182;SDS011;73077;49.898;16.450;2023-12-20T03:00:21;4.80;;;2.83;;
83182;SDS011;73077;49.898;16.450;2023-12-20T03:02:46;5.22;;;3.25;;
83182;SDS011;73077;49.898;16.450;2023-12-20T03:05:12;2.83;;;2.50;;
83182;SDS011;73077;49.898;16.450;2023-12-20T03:07:38;3.85;;;2.70;;
83182;SDS011;73077;49.898;16.450;2023-12-20T03:10:04;5.57;;;2.95;;
83182;SDS011;73077;49.898;16.450;2023-12-20T03:12:31;5.47;;;2.58;;
83182;SDS011;73077;49.898;16.450;2023-12-20T03:14:57;5.38;;;3.60;;
83182;SDS011;73077;49.898;16.450;2023-12-20T03:17:22;5.88;;;2.58;;
83182;SDS011;73077;49.898;16.450;2023-12-20T03:19:48;7.20;;;3.67;;
83182;SDS011;73077;49.898;16.450;2023-12-20T03:22:13;7.10;;;3.80;;
83182;SDS011;73077;49.898;16.450;2023-12-20T03:24:39;5.43;;;2.88;;
83182;SDS011;73077;49.898;16.450;2023-12-20T03:27:05;7.07;;;2.75;;
83182;SDS011;73077;49.898;16.450;2023-12-20T03:29:31;7.90;;;3.20;;
83182;SDS011;73077;49.898;16.450;2023-12-20T03:31:56;5.25;;;2.72;;
83182;SDS011;73077;49.898;16.450;2023-12-20T03:34:23;5.95;;;2.97;;
83182;SDS011;73077;49.898;16.450;2023-12-20T03:36:50;3.45;;;2.03;;
83182;SDS011;73077;49.898;16.450;2023-12-20T03:39:16;6.45;;;2.38;;
83182;SDS011;73077;49.898;16.450;2023-12-20T03:41:41;5.65;;;2.75;;
83182;SDS011;73077;49.898;16.450;2023-12-20T03:44:07;5.47;;;2.40;;
83182;SDS011;73077;49.898;16.450;2023-12-20T03:46:33;8.68;;;2.60;;
83182;SDS011;73077;49.898;16.450;2023-12-20T03:48:58;3.47;;;1.95;;
83182;SDS011;73077;49.898;16.450;2023-12-20T03:51:24;6.20;;;2.50;;
83182;SDS011;73077;49.898;16.450;2023-12-20T03:53:50;5.35;;;2.63;;
83182;SDS011;73077;49.898;16.450;2023-12-20T03:56:15;3.78;;;2.45;;
83182;SDS011;73077;49.898;16.450;2023-12-20T03:58:41;5.13;;;2.47;;
83182;SDS011;73077;49.898;16.450;2023-12-20T04:01:10;7.38;;;2.47;;
83182;SDS011;73077;49.898;16.450;2023-12-20T04:03:38;3.17;;;1.77;;
83182;SDS011;73077;49.898;16.450;2023-12-20T04:06:05;2.33;;;1.83;;
83182;SDS011;73077;49.898;16.450;2023-12-20T04:08:31;4.10;;;3.08;;
83182;SDS011;73077;49.898;16.450;2023-12-20T04:10:57;3.55;;;1.88;;
83182;SDS011;73077;49.898;16.450;2023-12-20T04:13:24;3.53;;;1.92;;
83182;SDS011;73077;49.898;16.450;2023-12-20T04:15:49;5.30;;;2.83;;
83182;SDS011;73077;49.898;16.450;2023-12-20T04:18:17;6.22;;;1.92;;
83182;SDS011;73077;49.898;16.450;2023-12-20T04:20:42;2.88;;;1.30;;
83182;SDS011;73077;49.898;16.450;2023-12-20T04:23:08;4.05;;;2.03;;
83182;SDS011;73077;49.898;16.450;2023-12-20T04:25:34;4.63;;;2.53;;
83182;SDS011;73077;49.898;16.450;2023-12-20T04:28:00;6.22;;;2.88;;
83182;SDS011;73077;49.898;16.450;2023-12-20T04:30:28;4.20;;;1.88;;
83182;SDS011;73077;49.898;16.450;2023-12-20T04:32:54;3.90;;;1.92;;
83182;SDS011;73077;49.898;16.450;2023-12-20T04:35:20;4.18;;;2.20;;
83182;SDS011;73077;49.898;16.450;2023-12-20T04:37:46;5.00;;;3.20;;
83182;SDS011;73077;49.898;16.450;2023-12-20T04:40:16;3.65;;;2.35;;
83182;SDS011;73077;49.898;16.450;2023-12-20T04:42:41;5.43;;;1.70;;
83182;SDS011;73077;49.898;16.450;2023-12-20T04:45:07;3.65;;;1.83;;
83182;SDS011;73077;49.898;16.450;2023-12-20T04:47:33;2.90;;;1.85;;
83182;SDS011;73077;49.898;16.450;2023-12-20T04:49:59;4.22;;;1.50;;
83182;SDS011;73077;49.898;16.450;2023-12-20T04:52:25;2.97;;;0.93;;
83182;SDS011;73077;49.898;16.450;2023-12-20T04:54:50;4.35;;;2.42;;
83182;SDS011;73077;49.898;16.450;2023-12-20T04:57:16;4.35;;;2.28;;
83182;SDS011;73077;49.898;16.450;2023-12-20T04:59:42;6.65;;;1.38;;
83182;SDS011;73077;49.898;16.450;2023-12-20T05:02:08;2.85;;;2.00;;
83182;SDS011;73077;49.898;16.450;2023-12-20T05:04:33;6.30;;;1.92;;
83182;SDS011;73077;49.898;16.450;2023-12-20T05:06:59;3.75;;;1.80;;
83182;SDS011;73077;49.898;16.450;2023-12-20T05:09:24;5.30;;;2.53;;
83182;SDS011;73077;49.898;16.450;2023-12-20T05:11:50;4.30;;;2.53;;
83182;SDS011;73077;49.898;16.450;2023-12-20T05:14:16;3.90;;;2.05;;
83182;SDS011;73077;49.898;16.450;2023-12-20T05:16:42;3.45;;;1.95;;
83182;SDS011;73077;49.898;16.450;2023-12-20T05:19:07;6.05;;;3.75;;
83182;SDS011;73077;49.898;16.450;2023-12-20T05:21:33;3.15;;;2.00;;
83182;SDS011;73077;49.898;16.450;2023-12-20T05:24:02;3.72;;;1.98;;
83182;SDS011;73077;49.898;16.450;2023-12-20T05:26:28;2.72;;;1.35;;
83182;SDS011;73077;49.898;16.450;2023-12-20T05:28:54;2.67;;;1.30;;
83182;SDS011;73077;49.898;16.450;2023-12-20T05:31:20;4.80;;;2.05;;
83182;SDS011;73077;49.898;16.450;2023-12-20T05:33:46;3.58;;;1.80;;
83182;SDS011;73077;49.898;16.450;2023-12-20T05:36:11;3.38;;;1.63;;
83182;SDS011;73077;49.898;16.450;2023-12-20T05:38:38;3.67;;;1.75;;
83182;SDS011;73077;49.898;16.450;2023-12-20T05:41:06;3.85;;;1.58;;
83182;SDS011;73077;49.898;16.450;2023-12-20T05:43:31;3.88;;;2.22;;
83182;SDS011;73077;49.898;16.450;2023-12-20T05:45:58;3.22;;;1.27;;
83182;SDS011;73077;49.898;16.450;2023-12-20T05:48:24;5.53;;;2.60;;
83182;SDS011;73077;49.898;16.450;2023-12-20T05:50:50;2.05;;;1.25;;
83182;SDS011;73077;49.898;16.450;2023-12-20T05:53:16;5.38;;;2.03;;
83182;SDS011;73077;49.898;16.450;2023-12-20T05:55:42;3.42;;;1.55;;
83182;SDS011;73077;49.898;16.450;2023-12-20T05:58:09;1.92;;;1.45;;
83182;SDS011;73077;49.898;16.450;2023-12-20T06:00:34;3.25;;;1.58;;
83182;SDS011;73077;49.898;16.450;2023-12-20T06:03:01;7.85;;;2.22;;
83182;SDS011;73077;49.898;16.450;2023-12-20T06:05:27;2.95;;;1.73;;
83182;SDS011;73077;49.898;16.450;2023-12-20T06:07:53;2.40;;;1.52;;
83182;SDS011;73077;49.898;16.450;2023-12-20T06:10:19;4.75;;;1.85;;
83182;SDS011;73077;49.898;16.450;2023-12-20T06:12:45;4.03;;;1.40;;
83182;SDS011;73077;49.898;16.450;2023-12-20T06:15:14;11.10;;;2.33;;
83182;SDS011;73077;49.898;16.450;2023-12-20T06:17:39;3.15;;;1.75;;
83182;SDS011;73077;49.898;16.450;2023-12-20T06:20:06;4.25;;;1.85;;
83182;SDS011;73077;49.898;16.450;2023-12-20T06:22:34;3.33;;;1.15;;
83182;SDS011;73077;49.898;16.450;2023-12-20T06:25:04;8.23;;;1.55;;
83182;SDS011;73077;49.898;16.450;2023-12-20T06:27:30;3.95;;;1.75;;
83182;SDS011;73077;49.898;16.450;2023-12-20T06:29:57;11.30;;;1.60;;
83182;SDS011;73077;49.898;16.450;2023-12-20T06:32:24;2.35;;;1.40;;
83182;SDS011;73077;49.898;16.450;2023-12-20T06:34:51;4.93;;;1.63;;
83182;SDS011;73077;49.898;16.450;2023-12-20T06:37:17;8.80;;;2.90;;
83182;SDS011;73077;49.898;16.450;2023-12-20T06:39:43;4.88;;;1.52;;
83182;SDS011;73077;49.898;16.450;2023-12-20T06:42:10;5.47;;;1.45;;
83182;SDS011;73077;49.898;16.450;2023-12-20T06:44:35;4.32;;;2.03;;
83182;SDS011;73077;49.898;16.450;2023-12-20T06:47:02;8.25;;;1.15;;
83182;SDS011;73077;49.898;16.450;2023-12-20T06:49:27;8.18;;;2.80;;
83182;SDS011;73077;49.898;16.450;2023-12-20T06:51:53;2.88;;;1.65;;
83182;SDS011;73077;49.898;16.450;2023-12-20T06:54:20;5.85;;;1.65;;
83182;SDS011;73077;49.898;16.450;2023-12-20T06:56:45;3.03;;;2.13;;
83182;SDS011;73077;49.898;16.450;2023-12-20T06:59:11;2.95;;;1.95;;
83182;SDS011;73077;49.898;16.450;2023-12-20T07:01:37;3.40;;;2.08;;
83182;SDS011;73077;49.898;16.450;2023-12-20T07:04:03;5.68;;;1.85;;
83182;SDS011;73077;49.898;16.450;2023-12-20T07:06:29;4.35;;;1.15;;
83182;SDS011;73077;49.898;16.450;2023-12-20T07:08:55;3.58;;;1.58;;
83182;SDS011;73077;49.898;16.450;2023-12-20T07:11:21;5.15;;;1.83;;
83182;SDS011;73077;49.898;16.450;2023-12-20T07:13:47;9.27;;;1.63;;
83182;SDS011;73077;49.898;16.450;2023-12-20T07:16:12;3.05;;;1.55;;
83182;SDS011;73077;49.898;16.450;2023-12-20T07:18:38;6.75;;;1.50;;
83182;SDS011;73077;49.898;16.450;2023-12-20T07:21:04;3.95;;;1.27;;
83182;SDS011;73077;49.898;16.450;2023-12-20T07:23:29;8.68;;;1.35;;
83182;SDS011;73077;49.898;16.450;2023-12-20T07:25:55;3.80;;;1.50;;
83182;SDS011;73077;49.898;16.450;2023-12-20T07:28:21;3.45;;;1.70;;
83182;SDS011;73077;49.898;16.450;2023-12-20T07:30:46;3.88;;;2.20;;
83182;SDS011;73077;49.898;16.450;2023-12-20T07:33:12;8.65;;;2.03;;
83182;SDS011;73077;49.898;16.450;2023-12-20T07:35:38;2.90;;;1.30;;
83182;SDS011;73077;49.898;16.450;2023-12-20T07:38:03;4.90;;;2.70;;
83182;SDS011;73077;49.898;16.450;2023-12-20T07:40:29;4.22;;;1.65;;
83182;SDS011;73077;49.898;16.450;2023-12-20T07:42:56;4.13;;;1.65;;
83182;SDS011;73077;49.898;16.450;2023-12-20T07:45:23;1.63;;;0.93;;
83182;SDS011;73077;49.898;16.450;2023-12-20T07:47:49;6.30;;;1.67;;
83182;SDS011;73077;49.898;16.450;2023-12-20T07:50:16;2.10;;;1.08;;
83182;SDS011;73077;49.898;16.450;2023-12-20T07:52:43;4.95;;;2.00;;
83182;SDS011;73077;49.898;16.450;2023-12-20T07:55:08;3.47;;;1.23;;
83182;SDS011;73077;49.898;16.450;2023-12-20T07:57:34;2.60;;;1.02;;
83182;SDS011;73077;49.898;16.450;2023-12-20T08:00:00;3.92;;;1.15;;
83182;SDS011;73077;49.898;16.450;2023-12-20T08:02:26;5.90;;;1.48;;
83182;SDS011;73077;49.898;16.450;2023-12-20T08:04:51;2.28;;;1.15;;
83182;SDS011;73077;49.898;16.450;2023-12-20T08:07:17;5.00;;;1.73;;
83182;SDS011;73077;49.898;16.450;2023-12-20T08:09:43;5.18;;;1.65;;
83182;SDS011;73077;49.898;16.450;2023-12-20T08:12:09;11.02;;;2.22;;
83182;SDS011;73077;49.898;16.450;2023-12-20T08:14:35;7.47;;;2.08;;
83182;SDS011;73077;49.898;16.450;2023-12-20T08:17:01;3.28;;;1.10;;
83182;SDS011;73077;49.898;16.450;2023-12-20T08:19:27;4.15;;;1.10;;
83182;SDS011;73077;49.898;16.450;2023-12-20T08:21:53;6.50;;;1.05;;
83182;SDS011;73077;49.898;16.450;2023-12-20T08:24:19;5.68;;;1.35;;
83182;SDS011;73077;49.898;16.450;2023-12-20T08:26:45;8.65;;;2.00;;
83182;SDS011;73077;49.898;16.450;2023-12-20T08:29:14;6.07;;;1.67;;
83182;SDS011;73077;49.898;16.450;2023-12-20T08:31:41;5.05;;;1.48;;
83182;SDS011;73077;49.898;16.450;2023-12-20T08:34:07;5.63;;;1.33;;
83182;SDS011;73077;49.898;16.450;2023-12-20T08:36:33;2.63;;;2.17;;
83182;SDS011;73077;49.898;16.450;2023-12-20T08:38:59;3.80;;;1.70;;
83182;SDS011;73077;49.898;16.450;2023-12-20T08:41:26;5.78;;;1.50;;
83182;SDS011;73077;49.898;16.450;2023-12-20T08:43:51;8.73;;;2.03;;
83182;SDS011;73077;49.898;16.450;2023-12-20T08:46:17;3.92;;;1.30;;
83182;SDS011;73077;49.898;16.450;2023-12-20T08:48:44;3.83;;;1.17;;
83182;SDS011;73077;49.898;16.450;2023-12-20T08:51:10;7.82;;;1.42;;
83182;SDS011;73077;49.898;16.450;2023-12-20T08:53:36;5.25;;;1.58;;
83182;SDS011;73077;49.898;16.450;2023-12-20T08:56:02;7.55;;;1.63;;
83182;SDS011;73077;49.898;16.450;2023-12-20T08:58:28;6.20;;;1.05;;
83182;SDS011;73077;49.898;16.450;2023-12-20T09:00:54;6.70;;;1.27;;
83182;SDS011;73077;49.898;16.450;2023-12-20T09:03:19;9.25;;;1.65;;
83182;SDS011;73077;49.898;16.450;2023-12-20T09:05:45;3.97;;;1.02;;
83182;SDS011;73077;49.898;16.450;2023-12-20T09:08:11;3.97;;;1.55;;
83182;SDS011;73077;49.898;16.450;2023-12-20T09:10:37;2.53;;;1.33;;
83182;SDS011;73077;49.898;16.450;2023-12-20T09:13:03;5.90;;;1.02;;
83182;SDS011;73077;49.898;16.450;2023-12-20T09:15:29;1.92;;;1.05;;
83182;SDS011;73077;49.898;16.450;2023-12-20T09:17:55;3.47;;;1.42;;
83182;SDS011;73077;49.898;16.450;2023-12-20T09:20:21;4.70;;;1.55;;
83182;SDS011;73077;49.898;16.450;2023-12-20T09:22:48;4.50;;;1.67;;
83182;SDS011;73077;49.898;16.450;2023-12-20T09:25:14;5.80;;;1.60;;
83182;SDS011;73077;49.898;16.450;2023-12-20T09:27:41;3.60;;;1.33;;
83182;SDS011;73077;49.898;16.450;2023-12-20T09:30:09;5.32;;;1.95;;
83182;SDS011;73077;49.898;16.450;2023-12-20T09:32:35;3.50;;;1.38;;
83182;SDS011;73077;49.898;16.450;2023-12-20T09:35:01;5.25;;;1.40;;
83182;SDS011;73077;49.898;16.450;2023-12-20T09:37:27;10.45;;;1.80;;
83182;SDS011;73077;49.898;16.450;2023-12-20T09:39:54;2.85;;;1.38;;
83182;SDS011;73077;49.898;16.450;2023-12-20T09:42:22;2.33;;;0.93;;
83182;SDS011;73077;49.898;16.450;2023-12-20T09:44:54;4.28;;;1.48;;
83182;SDS011;73077;49.898;16.450;2023-12-20T09:47:22;2.40;;;1.15;;
83182;SDS011;73077;49.898;16.450;2023-12-20T09:49:50;2.83;;;1.08;;
83182;SDS011;73077;49.898;16.450;2023-12-20T09:52:16;3.42;;;1.27;;
83182;SDS011;73077;49.898;16.450;2023-12-20T09:54:43;1.50;;;0.77;;
83182;SDS011;73077;49.898;16.450;2023-12-20T09:57:10;1.98;;;1.00;;
83182;SDS011;73077;49.898;16.450;2023-12-20T09:59:35;3.58;;;1.50;;
83182;SDS011;73077;49.898;16.450;2023-12-20T10:02:02;2.72;;;1.02;;
83182;SDS011;73077;49.898;16.450;2023-12-20T10:04:34;2.58;;;1.27;;
83182;SDS011;73077;49.898;16.450;2023-12-20T10:07:02;3.30;;;0.90;;
83182;SDS011;73077;49.898;16.450;2023-12-20T10:09:31;5.57;;;1.50;;
83182;SDS011;73077;49.898;16.450;2023-12-20T10:11:57;5.15;;;1.23;;
83182;SDS011;73077;49.898;16.450;2023-12-20T10:14:24;2.05;;;0.75;;
83182;SDS011;73077;49.898;16.450;2023-12-20T10:16:49;4.28;;;0.88;;
83182;SDS011;73077;49.898;16.450;2023-12-20T10:19:17;2.72;;;0.85;;
83182;SDS011;73077;49.898;16.450;2023-12-20T10:21:43;1.85;;;1.02;;
83182;SDS011;73077;49.898;16.450;2023-12-20T10:24:10;3.70;;;0.93;;
83182;SDS011;73077;49.898;16.450;2023-12-20T10:26:42;3.70;;;0.95;;
83182;SDS011;73077;49.898;16.450;2023-12-20T10:29:08;3.38;;;0.88;;
83182;SDS011;73077;49.898;16.450;2023-12-20T10:31:36;6.03;;;0.88;;
83182;SDS011;73077;49.898;16.450;2023-12-20T10:34:04;1.88;;;1.10;;
83182;SDS011;73077;49.898;16.450;2023-12-20T10:36:31;2.22;;;1.48;;
83182;SDS011;73077;49.898;16.450;2023-12-20T10:38:58;1.75;;;0.60;;
83182;SDS011;73077;49.898;16.450;2023-12-20T10:41:29;2.70;;;0.93;;
83182;SDS011;73077;49.898;16.450;2023-12-20T10:44:01;2.03;;;0.60;;
83182;SDS011;73077;49.898;16.450;2023-12-20T10:46:28;2.75;;;0.70;;
83182;SDS011;73077;49.898;16.450;2023-12-20T10:48:55;6.78;;;1.35;;
83182;SDS011;73077;49.898;16.450;2023-12-20T10:51:23;3.10;;;1.38;;
83182;SDS011;73077;49.898;16.450;2023-12-20T10:53:52;2.05;;;1.25;;
83182;SDS011;73077;49.898;16.450;2023-12-20T10:56:19;3.05;;;0.93;;
83182;SDS011;73077;49.898;16.450;2023-12-20T10:58:48;6.43;;;0.77;;
83182;SDS011;73077;49.898;16.450;2023-12-20T11:01:16;1.35;;;0.70;;
83182;SDS011;73077;49.898;16.450;2023-12-20T11:03:45;2.25;;;1.33;;
83182;SDS011;73077;49.898;16.450;2023-12-20T11:09:26;1.77;;;1.15;;
83182;SDS011;73077;49.898;16.450;2023-12-20T11:17:07;1.30;;;0.63;;
83182;SDS011;73077;49.898;16.450;2023-12-20T11:22:28;3.00;;;1.10;;
83182;SDS011;73077;49.898;16.450;2023-12-20T11:25:02;1.20;;;0.85;;
83182;SDS011;73077;49.898;16.450;2023-12-20T11:27:36;1.17;;;0.63;;
83182;SDS011;73077;49.898;16.450;2023-12-20T11:30:05;3.20;;;1.25;;
83182;SDS011;73077;49.898;16.450;2023-12-20T11:32:33;1.50;;;0.70;;
83182;SDS011;73077;49.898;16.450;2023-12-20T11:37:36;5.20;;;0.82;;
83182;SDS011;73077;49.898;16.450;2023-12-20T11:40:07;1.48;;;0.68;;
83182;SDS011;73077;49.898;16.450;2023-12-20T11:42:40;1.90;;;0.35;;
83182;SDS011;73077;49.898;16.450;2023-12-20T11:45:10;3.65;;;1.38;;
83182;SDS011;73077;49.898;16.450;2023-12-20T11:47:45;5.97;;;0.47;;
83182;SDS011;73077;49.898;16.450;2023-12-20T11:50:12;1.90;;;0.68;;
83182;SDS011;73077;49.898;16.450;2023-12-20T11:52:38;1.85;;;1.17;;
83182;SDS011;73077;49.898;16.450;2023-12-20T11:55:03;1.38;;;0.35;;
83182;SDS011;73077;49.898;16.450;2023-12-20T11:57:30;2.25;;;0.55;;
83182;SDS011;73077;49.898;16.450;2023-12-20T11:59:56;2.53;;;0.68;;
83182;SDS011;73077;49.898;16.450;2023-12-20T12:02:23;5.03;;;1.10;;
83182;SDS011;73077;49.898;16.450;2023-12-20T12:04:49;1.42;;;0.50;;
83182;SDS011;73077;49.898;16.450;2023-12-20T12:09:44;0.90;;;0.30;;
83182;SDS011;73077;49.898;16.450;2023-12-20T12:12:11;2.22;;;0.60;;
83182;SDS011;73077;49.898;16.450;2023-12-20T12:14:38;2.72;;;0.55;;
83182;SDS011;73077;49.898;16.450;2023-12-20T12:17:12;1.13;;;0.75;;
83182;SDS011;73077;49.898;16.450;2023-12-20T12:19:40;0.95;;;0.50;;
83182;SDS011;73077;49.898;16.450;2023-12-20T12:22:07;1.10;;;0.50;;
83182;SDS011;73077;49.898;16.450;2023-12-20T12:24:41;1.20;;;0.75;;
83182;SDS011;73077;49.898;16.450;2023-12-20T12:27:08;1.77;;;0.57;;
83182;SDS011;73077;49.898;16.450;2023-12-20T12:29:36;1.10;;;0.70;;
83182;SDS011;73077;49.898;16.450;2023-12-20T12:32:05;1.35;;;0.82;;
83182;SDS011;73077;49.898;16.450;2023-12-20T12:34:32;0.73;;;0.40;;
83182;SDS011;73077;49.898;16.450;2023-12-20T12:37:01;5.43;;;0.82;;
83182;SDS011;73077;49.898;16.450;2023-12-20T12:39:29;4.05;;;0.73;;
83182;SDS011;73077;49.898;16.450;2023-12-20T12:41:55;1.95;;;0.90;;
83182;SDS011;73077;49.898;16.450;2023-12-20T12:44:22;2.15;;;0.82;;
83182;SDS011;73077;49.898;16.450;2023-12-20T12:49:19;4.38;;;0.85;;
83182;SDS011;73077;49.898;16.450;2023-12-20T12:51:46;1.10;;;0.20;;
83182;SDS011;73077;49.898;16.450;2023-12-20T12:54:12;2.63;;;0.35;;
83182;SDS011;73077;49.898;16.450;2023-12-20T12:56:38;1.77;;;0.68;;
83182;SDS011;73077;49.898;16.450;2023-12-20T12:59:04;1.35;;;0.20;;
83182;SDS011;73077;49.898;16.450;2023-12-20T13:01:34;2.90;;;1.38;;
83182;SDS011;73077;49.898;16.450;2023-12-20T13:03:59;2.10;;;0.57;;
83182;SDS011;73077;49.898;16.450;2023-12-20T13:06:28;0.95;;;0.50;;
83182;SDS011;73077;49.898;16.450;2023-12-20T13:08:55;1.05;;;0.55;;
83182;SDS011;73077;49.898;16.450;2023-12-20T13:11:20;0.60;;;0.32;;
83182;SDS011;73077;49.898;16.450;2023-12-20T13:13:48;1.95;;;0.17;;
83182;SDS011;73077;49.898;16.450;2023-12-20T13:16:13;2.30;;;0.73;;
83182;SDS011;73077;49.898;16.450;2023-12-20T13:18:40;0.52;;;0.52;;
83182;SDS011;73077;49.898;16.450;2023-12-20T13:21:08;1.88;;;1.23;;
83182;SDS011;73077;49.898;16.450;2023-12-20T13:23:36;0.88;;;0.80;;
83182;SDS011;73077;49.898;16.450;2023-12-20T13:26:05;1.50;;;0.68;;
83182;SDS011;73077;49.898;16.450;2023-12-20T13:28:34;1.02;;;0.52;;
83182;SDS011;73077;49.898;16.450;2023-12-20T13:30:59;0.90;;;0.77;;
83182;SDS011;73077;49.898;16.450;2023-12-20T13:33:25;1.10;;;0.30;;
83182;SDS011;73077;49.898;16.450;2023-12-20T13:35:51;3.65;;;0.60;;
83182;SDS011;73077;49.898;16.450;2023-12-20T13:38:17;2.03;;;0.40;;
83182;SDS011;73077;49.898;16.450;2023-12-20T13:40:42;0.80;;;0.38;;
83182;SDS011;73077;49.898;16.450;2023-12-20T13:43:08;0.50;;;0.50;;
83182;SDS011;73077;49.898;16.450;2023-12-20T13:45:39;3.30;;;3.13;;
83182;SDS011;73077;49.898;16.450;2023-12-20T13:48:04;0.60;;;0.25;;
83182;SDS011;73077;49.898;16.450;2023-12-20T13:50:30;0.60;;;0.22;;
83182;SDS011;73077;49.898;16.450;2023-12-20T13:52:58;0.93;;;0.50;;
83182;SDS011;73077;49.898;16.450;2023-12-20T13:55:25;0.20;;;0.20;;
83182;SDS011;73077;49.898;16.450;2023-12-20T13:57:52;1.50;;;0.40;;
83182;SDS011;73077;49.898;16.450;2023-12-20T14:00:18;1.55;;;0.93;;
83182;SDS011;73077;49.898;16.450;2023-12-20T14:02:44;0.60;;;0.30;;
83182;SDS011;73077;49.898;16.450;2023-12-20T14:05:11;0.28;;;0.17;;
83182;SDS011;73077;49.898;16.450;2023-12-20T14:07:41;1.05;;;0.47;;
83182;SDS011;73077;49.898;16.450;2023-12-20T14:10:13;0.80;;;0.45;;
83182;SDS011;73077;49.898;16.450;2023-12-20T14:12:39;1.40;;;1.05;;
83182;SDS011;73077;49.898;16.450;2023-12-20T14:15:07;0.75;;;0.32;;
83182;SDS011;73077;49.898;16.450;2023-12-20T14:17:41;0.63;;;0.30;;
83182;SDS011;73077;49.898;16.450;2023-12-20T14:20:08;0.88;;;0.55;;
83182;SDS011;73077;49.898;16.450;2023-12-20T14:22:34;0.82;;;0.65;;
83182;SDS011;73077;49.898;16.450;2023-12-20T14:25:14;0.52;;;0.43;;
83182;SDS011;73077;49.898;16.450;2023-12-20T14:27:40;0.70;;;0.60;;
83182;SDS011;73077;49.898;16.450;2023-12-20T14:30:08;1.20;;;0.60;;
83182;SDS011;73077;49.898;16.450;2023-12-20T14:32:35;2.83;;;0.57;;
83182;SDS011;73077;49.898;16.450;2023-12-20T14:35:06;0.85;;;0.73;;
83182;SDS011;73077;49.898;16.450;2023-12-20T14:37:38;1.33;;;0.20;;
83182;SDS011;73077;49.898;16.450;2023-12-20T14:40:10;0.88;;;0.32;;
83182;SDS011;73077;49.898;16.450;2023-12-20T14:42:43;0.47;;;0.45;;
83182;SDS011;73077;49.898;16.450;2023-12-20T14:45:09;1.20;;;0.40;;
83182;SDS011;73077;49.898;16.450;2023-12-20T14:47:35;0.95;;;0.77;;
83182;SDS011;73077;49.898;16.450;2023-12-20T14:50:04;0.98;;;0.73;;